createdAt,value
2018-12-19T10:59:35.309Z,5.63
2018-12-19T11:04:48.179Z,7.80
2018-12-19T11:07:16.927Z,7.72
2018-12-19T11:09:45.704Z,6.90
2018-12-19T11:12:14.396Z,9.83
2018-12-19T11:14:43.439Z,10.73
2018-12-19T11:17:12.318Z,8.28
2018-12-19T11:19:42.166Z,11.83
2018-12-19T11:22:12.852Z,15.40
2018-12-19T11:24:41.717Z,11.18
2018-12-19T11:27:10.551Z,13.13
2018-12-19T11:29:39.282Z,8.30
2018-12-19T11:32:08.088Z,10.40
2018-12-19T11:34:36.791Z,11.63
2018-12-19T11:37:05.710Z,11.97
2018-12-19T11:39:34.456Z,10.67
2018-12-19T11:42:03.271Z,12.80
2018-12-19T11:44:32.036Z,14.70
2018-12-19T11:47:00.767Z,13.20
2018-12-19T11:49:30.267Z,10.33
2018-12-19T11:51:59.295Z,10.23
2018-12-19T11:54:28.053Z,11.50
2018-12-19T11:56:57.185Z,12.13
2018-12-19T11:59:25.851Z,11.73
2018-12-19T12:01:54.523Z,11.17
2018-12-19T12:04:23.279Z,11.43
2018-12-19T12:06:53.922Z,11.63
2018-12-19T12:09:22.780Z,14.28
2018-12-19T12:11:51.480Z,14.07
2018-12-19T12:14:20.270Z,13.53
2018-12-19T12:16:48.943Z,15.00
2018-12-19T12:19:17.627Z,12.97
2018-12-19T12:21:46.710Z,14.73
2018-12-19T12:24:15.769Z,12.03
2018-12-19T12:26:44.455Z,13.47
2018-12-19T12:29:13.274Z,13.60
2018-12-19T12:31:42.187Z,11.38
2018-12-19T12:34:10.888Z,12.80
2018-12-19T12:36:39.687Z,13.97
2018-12-19T12:39:08.710Z,13.38
2018-12-19T12:41:37.565Z,12.53
2018-12-19T12:44:07.228Z,13.43
2018-12-19T12:46:37.010Z,12.43
2018-12-19T12:49:05.799Z,14.70
2018-12-19T12:51:34.594Z,18.27
2018-12-19T12:54:03.430Z,15.57
2018-12-19T12:56:32.142Z,12.37
2018-12-19T12:59:01.450Z,17.70
2018-12-19T13:01:30.420Z,14.73
2018-12-19T13:03:59.110Z,18.50
2018-12-19T13:06:27.816Z,14.57
2018-12-19T13:08:56.862Z,13.10
2018-12-19T13:11:25.627Z,15.30
2018-12-19T13:13:54.335Z,20.53
2018-12-19T13:16:23.022Z,18.40
2018-12-19T13:18:51.833Z,18.67
2018-12-19T13:21:20.562Z,15.93
2018-12-19T13:23:49.357Z,13.90
2018-12-19T13:26:18.103Z,13.07
2018-12-19T13:28:46.765Z,13.60
2018-12-19T13:31:15.563Z,16.25
2018-12-19T13:33:44.453Z,15.57
2018-12-19T13:36:13.207Z,14.25
2018-12-19T13:38:42.003Z,13.55
2018-12-19T13:41:10.794Z,13.30
2018-12-19T13:43:39.570Z,15.63
2018-12-19T13:46:08.332Z,13.57
2018-12-19T13:48:37.278Z,12.47
2018-12-19T13:51:06.034Z,14.73
2018-12-19T13:53:34.719Z,13.97
2018-12-19T13:56:03.464Z,11.13
2018-12-19T13:58:33.872Z,13.50
2018-12-19T14:01:02.796Z,11.77
2018-12-19T14:03:32.572Z,15.77
2018-12-19T14:06:01.387Z,11.57
2018-12-19T14:08:30.166Z,12.97
2018-12-19T14:10:58.932Z,12.57
2018-12-19T14:13:27.736Z,13.22
2018-12-19T14:15:56.522Z,14.30
2018-12-19T14:18:25.414Z,12.67
2018-12-19T14:20:54.222Z,18.03
2018-12-19T14:23:22.921Z,11.93
2018-12-19T14:25:51.707Z,13.70
2018-12-19T14:28:20.458Z,11.50
2018-12-19T14:30:49.194Z,12.63
2018-12-19T14:33:18.035Z,16.15
2018-12-19T14:35:46.722Z,13.45
2018-12-19T14:38:15.450Z,13.60
2018-12-19T14:40:44.267Z,15.50
2018-12-19T14:43:13.110Z,15.53
2018-12-19T14:45:41.907Z,13.65
2018-12-19T14:48:17.114Z,11.35
2018-12-19T14:50:45.884Z,12.40
2018-12-19T14:53:14.588Z,13.60
2018-12-19T14:55:43.706Z,11.60
2018-12-19T14:58:12.638Z,9.87
2018-12-19T15:00:41.435Z,11.83
2018-12-19T15:03:10.114Z,12.83
2018-12-19T15:05:38.954Z,12.03
2018-12-19T15:08:07.664Z,14.07
2018-12-19T15:10:36.420Z,10.80
2018-12-19T15:13:06.288Z,11.50
2018-12-19T15:15:34.993Z,12.60
2018-12-19T15:18:03.932Z,11.83
2018-12-19T15:20:32.720Z,11.23
2018-12-19T15:23:01.399Z,12.50
2018-12-19T15:25:30.106Z,12.47
2018-12-19T15:27:58.806Z,13.03
2018-12-19T15:30:27.484Z,10.07
2018-12-19T15:32:56.622Z,11.63
2018-12-19T15:35:25.366Z,12.03
2018-12-19T15:37:54.095Z,10.57
2018-12-19T15:40:22.882Z,10.47
2018-12-19T15:42:51.637Z,12.47
2018-12-19T15:45:20.483Z,13.20
2018-12-19T15:47:49.163Z,16.32
2018-12-19T15:50:17.919Z,14.17
2018-12-19T15:52:46.840Z,13.05
2018-12-19T15:55:15.657Z,12.00
2018-12-19T15:57:44.411Z,11.35
2018-12-19T16:00:16.807Z,12.43
2018-12-19T16:02:45.524Z,11.10
2018-12-19T16:05:14.294Z,14.37
2018-12-19T16:07:42.971Z,19.03
2018-12-19T16:10:12.091Z,13.57
2018-12-19T16:12:40.969Z,12.80
2018-12-19T16:15:09.778Z,13.83
2018-12-19T16:17:38.597Z,16.73
2018-12-19T16:20:08.280Z,16.40
2018-12-19T16:22:36.963Z,15.80
2018-12-19T16:25:05.896Z,12.77
2018-12-19T16:27:34.994Z,26.17
2018-12-19T16:30:03.906Z,14.60
2018-12-19T16:32:32.738Z,14.23
2018-12-19T16:35:01.665Z,14.43
2018-12-19T16:37:30.879Z,14.07
2018-12-19T16:39:59.588Z,12.50
2018-12-19T16:42:28.324Z,13.90
2018-12-19T16:44:57.170Z,15.50
2018-12-19T16:47:25.982Z,14.23
2018-12-19T16:49:54.834Z,15.60
2018-12-19T16:52:23.527Z,13.30
2018-12-19T16:54:52.271Z,13.83
2018-12-19T16:57:21.034Z,14.37
2018-12-19T16:59:49.822Z,16.90
2018-12-19T17:02:18.567Z,17.70
2018-12-19T17:04:47.361Z,14.83
2018-12-19T17:07:22.743Z,14.87
2018-12-19T17:09:51.556Z,19.40
2018-12-19T17:12:20.273Z,16.35
2018-12-19T17:14:49.135Z,18.25
2018-12-19T17:17:18.187Z,17.70
2018-12-19T17:19:47.927Z,17.70
2018-12-19T17:22:16.733Z,16.43
2018-12-19T17:24:45.955Z,20.68
2018-12-19T17:27:15.039Z,19.00
2018-12-19T17:29:43.835Z,17.87
2018-12-19T17:32:12.721Z,16.40
2018-12-19T17:34:41.510Z,21.43
2018-12-19T17:37:10.505Z,17.57
2018-12-19T17:39:39.326Z,16.17
2018-12-19T17:42:08.166Z,16.83
2018-12-19T17:44:36.920Z,17.83
2018-12-19T17:47:05.840Z,18.53
2018-12-19T17:49:34.804Z,14.10
2018-12-19T17:52:03.960Z,16.13
2018-12-19T17:54:32.737Z,16.80
2018-12-19T17:57:01.674Z,15.50
2018-12-19T17:59:30.460Z,15.53
2018-12-19T18:01:59.346Z,14.97
2018-12-19T18:04:28.199Z,19.40
2018-12-19T18:06:57.032Z,17.47
2018-12-19T18:09:25.771Z,16.13
2018-12-19T18:11:54.720Z,15.67
2018-12-19T18:14:23.537Z,16.95
2018-12-19T18:16:52.335Z,15.70
2018-12-19T18:19:23.464Z,15.80
2018-12-19T18:21:51.787Z,15.50
2018-12-19T18:24:22.163Z,14.83
2018-12-19T18:26:50.914Z,14.57
2018-12-19T18:29:19.724Z,14.18
2018-12-19T18:31:48.646Z,14.60
2018-12-19T18:34:17.501Z,15.20
2018-12-19T18:36:46.316Z,17.00
2018-12-19T18:39:15.215Z,14.37
2018-12-19T18:41:43.996Z,19.04
2018-12-19T18:44:14.092Z,13.70
2018-12-19T18:46:42.809Z,11.75
2018-12-19T18:49:11.687Z,14.27
2018-12-19T18:51:40.675Z,12.30
2018-12-19T18:54:09.420Z,14.70
2018-12-19T18:56:38.503Z,17.57
2018-12-19T18:59:07.915Z,16.30
2018-12-19T19:01:37.832Z,11.70
2018-12-19T19:04:06.780Z,12.10
2018-12-19T19:06:35.628Z,13.33
2018-12-19T19:09:05.306Z,13.63
2018-12-19T19:11:37.264Z,18.67
2018-12-19T19:14:06.221Z,16.80
2018-12-19T19:16:34.983Z,13.72
2018-12-19T19:19:03.806Z,17.50
2018-12-19T19:21:32.596Z,15.40
2018-12-19T19:24:01.372Z,17.00
2018-12-19T19:26:30.139Z,14.00
2018-12-19T19:28:58.870Z,15.73
2018-12-19T19:31:27.895Z,16.03
2018-12-19T19:33:56.705Z,19.37
2018-12-19T19:36:25.424Z,15.93
2018-12-19T19:38:54.246Z,17.03
2018-12-19T19:41:23.462Z,14.67
2018-12-19T19:43:52.300Z,15.17
2018-12-19T19:46:21.106Z,16.63
2018-12-19T19:48:49.902Z,17.17
2018-12-19T19:51:18.623Z,17.00
2018-12-19T19:57:28.695Z,18.57
2018-12-19T19:59:57.543Z,18.47
2018-12-19T20:02:26.474Z,19.00
2018-12-19T20:04:55.209Z,21.68
2018-12-19T20:07:24.203Z,18.83
2018-12-19T20:09:52.937Z,18.92
2018-12-19T20:12:21.863Z,15.87
2018-12-19T20:14:50.564Z,16.50
2018-12-19T20:17:24.828Z,16.37
2018-12-19T20:19:53.726Z,17.27
2018-12-19T20:22:22.690Z,16.87
2018-12-19T20:24:51.621Z,20.07
2018-12-19T20:27:20.303Z,22.03
2018-12-19T20:29:50.022Z,21.48
2018-12-19T20:32:18.893Z,22.13
2018-12-19T20:34:47.634Z,19.20
2018-12-19T20:37:16.523Z,20.87
2018-12-19T20:39:45.570Z,20.33
2018-12-19T20:42:14.878Z,19.87
2018-12-19T20:44:43.867Z,20.75
2018-12-19T20:47:13.871Z,23.90
2018-12-19T20:49:42.737Z,20.90
2018-12-19T20:52:11.712Z,20.40
2018-12-19T20:54:40.614Z,18.80
2018-12-19T20:57:09.422Z,16.87
2018-12-19T20:59:38.270Z,21.37
2018-12-19T21:02:07.256Z,18.93
2018-12-19T21:04:36.054Z,18.67
2018-12-19T21:07:05.636Z,22.40
2018-12-19T21:09:34.415Z,20.07
2018-12-19T21:12:03.643Z,21.57
2018-12-19T21:14:33.184Z,20.97
2018-12-19T21:17:07.488Z,18.40
2018-12-19T21:19:36.439Z,24.07
2018-12-19T21:22:09.183Z,22.23
2018-12-19T21:24:37.988Z,18.77
2018-12-19T21:27:06.763Z,19.40
2018-12-19T21:29:35.650Z,19.07
2018-12-19T21:32:04.969Z,18.73
2018-12-19T21:34:33.795Z,21.73
2018-12-19T21:37:02.768Z,25.53
2018-12-19T21:39:31.511Z,24.30
2018-12-19T21:42:00.375Z,26.30
2018-12-19T21:44:29.227Z,24.87
2018-12-19T21:46:58.080Z,26.68
2018-12-19T21:49:26.928Z,23.83
2018-12-19T21:51:55.584Z,19.55
2018-12-19T21:54:24.455Z,20.40
2018-12-19T21:56:53.593Z,23.07
2018-12-19T21:59:23.572Z,21.27
2018-12-19T22:01:52.455Z,24.13
2018-12-19T22:04:21.298Z,25.17
2018-12-19T22:06:50.025Z,19.20
2018-12-19T22:09:18.814Z,22.73
2018-12-19T22:11:47.692Z,24.37
2018-12-19T22:14:16.407Z,19.70
2018-12-19T22:16:50.437Z,20.90
2018-12-19T22:19:19.679Z,23.43
2018-12-19T22:21:48.371Z,22.67
2018-12-19T22:24:17.165Z,23.13
2018-12-19T22:26:46.057Z,19.17
2018-12-19T22:29:14.821Z,26.93
2018-12-19T22:31:44.686Z,23.67
2018-12-19T22:34:14.122Z,25.60
2018-12-19T22:36:42.817Z,21.73
2018-12-19T22:39:15.879Z,27.73
2018-12-19T22:41:44.702Z,21.13
2018-12-19T22:44:14.821Z,21.67
2018-12-19T22:46:45.272Z,25.10
2018-12-19T22:49:14.205Z,24.10
2018-12-19T22:51:42.934Z,24.20
2018-12-19T22:54:11.785Z,25.07
2018-12-19T22:56:40.445Z,22.90
2018-12-19T22:59:09.524Z,23.50
2018-12-19T23:01:43.714Z,30.23
2018-12-19T23:04:12.561Z,24.27
2018-12-19T23:06:41.764Z,23.93
2018-12-19T23:09:10.559Z,29.37
2018-12-19T23:11:39.453Z,23.83
2018-12-19T23:14:15.184Z,25.47
2018-12-19T23:16:44.934Z,23.87
2018-12-19T23:19:19.302Z,24.02
2018-12-19T23:21:53.846Z,22.93
2018-12-19T23:24:28.201Z,22.27
2018-12-19T23:26:57.236Z,25.13
2018-12-19T23:29:27.957Z,22.90
2018-12-19T23:31:57.002Z,19.32
2018-12-19T23:34:25.780Z,24.43
2018-12-19T23:36:54.503Z,19.67
2018-12-19T23:39:23.289Z,21.27
2018-12-19T23:41:52.113Z,23.70
2018-12-19T23:44:27.827Z,17.43
2018-12-19T23:46:58.114Z,20.03
2018-12-19T23:49:26.925Z,21.77
2018-12-19T23:51:55.730Z,17.03
2018-12-19T23:54:29.023Z,21.50
2018-12-19T23:56:55.225Z,22.03
2018-12-19T23:59:24.052Z,20.43
